CW6020 Teulada ES current weather conditions

sailwx.info

Wind from 315 at 2 knots gusting 4

Air temperature 12.2° C
Dewpoint 10.5° C

Last reported at 2017-Mar-28 03:41 UTC.
Time now 2017-Mar-28 04:22 UTC

Location: N 38°44' E 000°06'.
View on Google Maps.

See reports from other nearby stations

  
Tides and Currents Weather Stations Pressure Air Temp Water Temp Dewpoint Dewpoint Depression Visibility Wind Speed Wind Dir Waves Ship Positions
date/time (UTC)wind fromknots sea level pressurealtimeterstation pressurevisibilityair tempwater tempwave heightnotes
2017-Mar-28 03:41 315 2 gusting 4 12.2
2017-Mar-28 03:31 12.2
2017-Mar-28 03:21 045 2 gusting 6 12.2
2017-Mar-28 03:11 12.2
2017-Mar-28 03:01 090 0 gusting 2 12.8
2017-Mar-28 02:51 045 0 gusting 1 12.8
2017-Mar-28 02:41 315 2 gusting 3 12.8
2017-Mar-28 02:31 12.8
2017-Mar-28 02:21 315 1 gusting 3 12.8
2017-Mar-28 02:11 315 4 gusting 6 12.8
2017-Mar-28 02:01 292 3 gusting 6 12.8
2017-Mar-28 01:51 337 2 gusting 6 12.8
2017-Mar-28 01:41 315 3 gusting 6 12.8
2017-Mar-28 01:31 315 2 gusting 3 13.3
2017-Mar-28 01:21 13.3
2017-Mar-28 01:11 315 5 gusting 7 13.3
2017-Mar-28 01:01 315 3 gusting 6 13.3
2017-Mar-28 00:51 13.3
2017-Mar-28 00:41 13.3
2017-Mar-28 00:31 315 2 gusting 5 13.3
2017-Mar-28 00:21 13.3
2017-Mar-28 00:11 13.3
2017-Mar-28 00:01 13.3
2017-Mar-27 23:51 315 2 gusting 5 13.3
2017-Mar-27 23:41 315 2 gusting 4 13.3
2017-Mar-27 23:31 315 2 gusting 4 13.3
2017-Mar-27 23:21 315 2 gusting 3 12.8
2017-Mar-27 23:11 315 1 gusting 3 12.2
2017-Mar-27 23:01 292 2 gusting 4 11.1
2017-Mar-27 22:51 315 0 gusting 2 10.6
2017-Mar-27 22:41 10.6
2017-Mar-27 22:31 10.6
2017-Mar-27 22:21 10.6
2017-Mar-27 22:11 10.6
2017-Mar-27 22:01 10.6
2017-Mar-27 21:51 10.6
2017-Mar-27 21:41 10.6
2017-Mar-27 21:31 11.1
2017-Mar-27 21:21 11.1
2017-Mar-27 21:11 11.1
2017-Mar-27 21:01 11.7
2017-Mar-27 20:51 135 0 gusting 2 11.7
2017-Mar-27 20:41 11.7
2017-Mar-27 20:31 12.2
2017-Mar-27 20:21 180 12.2
2017-Mar-27 20:11 135 12.2
2017-Mar-27 20:01 12.8
2017-Mar-27 19:51 12.8
2017-Mar-27 19:41 13.3
2017-Mar-27 19:31 13.3
2017-Mar-27 19:21 13.9
2017-Mar-27 19:11 13.9
2017-Mar-27 19:01 13.9
2017-Mar-27 18:51 270 14.4
2017-Mar-27 18:41 14.4
2017-Mar-27 18:31 15.0
2017-Mar-27 18:21 180 0 gusting 2 15.0
2017-Mar-27 18:11 180 15.0
2017-Mar-27 18:01 315 15.6
2017-Mar-27 17:51 225 15.6
2017-Mar-27 17:41 315 1 gusting 2 15.6
2017-Mar-27 17:31 225 1 gusting 2 16.1
2017-Mar-27 17:21 090 1 gusting 3 16.1
2017-Mar-27 17:11 225 1 gusting 3 16.1
2017-Mar-27 17:01 225 1 gusting 3 16.1
2017-Mar-27 16:51 180 1 gusting 2 16.1
2017-Mar-27 16:41 225 2 gusting 3 16.7
2017-Mar-27 16:31 135 2 gusting 4 16.7
2017-Mar-27 16:21 315 2 gusting 6 16.7
2017-Mar-27 16:11 337 2 gusting 4 16.7
2017-Mar-27 16:01 315 3 gusting 6 16.7
2017-Mar-27 15:51 135 2 gusting 5 16.7
2017-Mar-27 15:41 180 2 gusting 6 16.7
2017-Mar-27 15:31 112 2 gusting 5 17.2
2017-Mar-27 15:21 180 4 gusting 5 17.2
2017-Mar-27 15:11 090 2 gusting 6 17.8
2017-Mar-27 15:01 17.8
2017-Mar-27 14:51 315 4 gusting 6 17.8
2017-Mar-27 14:41 135 3 gusting 6 17.2
2017-Mar-27 14:31 135 2 gusting 4 17.2
2017-Mar-27 14:21 225 6 gusting 8 17.8
2017-Mar-27 14:11 180 5 gusting 6 17.8
2017-Mar-27 14:01 135 5 gusting 6 17.8
2017-Mar-27 13:51 135 5 gusting 7 18.3
2017-Mar-27 13:41 112 5 gusting 6 18.9
2017-Mar-27 13:31 180 3 gusting 5 18.3
2017-Mar-27 13:21 180 4 gusting 6 18.3
2017-Mar-27 13:11 180 4 gusting 6 18.3
2017-Mar-27 13:01 225 2 gusting 6 18.3
2017-Mar-27 12:51 180 5 gusting 9 17.8
2017-Mar-27 12:41 225 4 gusting 6 18.3
2017-Mar-27 12:31 315 5 gusting 7 18.9
2017-Mar-27 12:21 135 6 gusting 10 18.9
2017-Mar-27 12:11 315 6 gusting 11 18.9
2017-Mar-27 12:01 180 5 gusting 10 18.9
2017-Mar-27 11:51 090 3 gusting 6 19.4
2017-Mar-27 11:41 135 19.4
2017-Mar-27 11:31 180 0 gusting 2 19.4
2017-Mar-27 11:21 270 0 gusting 2 20.0
2017-Mar-27 11:11 315 1 gusting 2 20.0
2017-Mar-27 11:01 292 1 gusting 2 20.0
2017-Mar-27 10:51 067 1 gusting 2 19.4
2017-Mar-27 10:41 090 3 gusting 6 19.4
2017-Mar-27 10:31 18.9
2017-Mar-27 10:21 315 2 gusting 7 18.3
2017-Mar-27 10:11 315 2 gusting 5 18.3
2017-Mar-27 10:01 17.8
2017-Mar-27 09:51 17.8
2017-Mar-27 09:41 270 2 gusting 5 17.2
2017-Mar-27 09:31 045 2 gusting 7 16.7
2017-Mar-27 09:16 315 2 gusting 4 16.7
2017-Mar-27 09:06 16.1
2017-Mar-27 08:56 337 0 gusting 2 15.6
2017-Mar-27 08:46 090 15.0
2017-Mar-27 08:36 225 0 gusting 2 15.0
2017-Mar-27 08:26 315 1 gusting 2 14.4
2017-Mar-27 08:16 13.9
2017-Mar-27 08:06 270 1 gusting 2 12.8
2017-Mar-27 07:56 045 0 gusting 2 12.8
2017-Mar-27 07:46 270 1 gusting 3 12.8
2017-Mar-27 07:36 315 2 gusting 4 12.8
2017-Mar-27 07:26 090 2 gusting 3 12.8
2017-Mar-27 07:16 045 4 gusting 6 12.8
2017-Mar-27 07:06 270 4 gusting 8 12.8
2017-Mar-27 06:56 315 5 gusting 7 12.8
2017-Mar-27 06:46 292 6 gusting 7 12.8
2017-Mar-27 06:36 315 4 gusting 7 12.2
2017-Mar-27 06:26 045 5 gusting 8 12.2
2017-Mar-27 06:16 315 2 gusting 6 12.2
2017-Mar-27 06:06 315 4 gusting 7 12.2
2017-Mar-27 05:56 12.2
2017-Mar-27 05:46 292 5 gusting 7 12.2
2017-Mar-27 05:36 315 5 gusting 6 12.8
2017-Mar-27 05:26 292 2 gusting 5 12.8
2017-Mar-27 05:16 12.8
2017-Mar-27 05:06 315 2 gusting 3 12.8
2017-Mar-27 04:56 12.8
2017-Mar-27 04:46 045 6 gusting 12 12.8
2017-Mar-27 04:36 12.8
2017-Mar-27 04:26 12.8
2017-Mar-27 04:16 315 3 gusting 5 12.8
2017-Mar-27 04:06 315 6 gusting 9 12.8
2017-Mar-27 03:56 315 2 gusting 5 12.8
2017-Mar-27 03:46 090 5 gusting 7 12.8
2017-Mar-27 03:36 315 5 gusting 7 13.3
2017-Mar-27 03:26 315 7 gusting 9 13.3
2017-Mar-27 03:16 315 7 gusting 13 13.3
2017-Mar-27 03:06 13.3
2017-Mar-27 02:56 292 3 gusting 6 13.3
2017-Mar-27 02:46 292 5 gusting 6 13.3
2017-Mar-27 02:36 292 5 gusting 6 13.3
2017-Mar-27 02:26 13.3
2017-Mar-27 02:16 315 4 gusting 6 13.3
2017-Mar-27 02:06 315 5 gusting 7 13.3
2017-Mar-27 01:56 337 3 gusting 6 13.3
2017-Mar-27 01:46 13.3
2017-Mar-27 01:36 225 4 gusting 6 12.8
2017-Mar-27 01:26 12.8
2017-Mar-27 01:16 315 4 gusting 5 12.8
2017-Mar-27 01:06 315 1 gusting 3 12.8
2017-Mar-27 00:56 315 1 gusting 4 12.8
2017-Mar-27 00:46 12.8
2017-Mar-27 00:36 315 1 gusting 2 12.8
2017-Mar-27 00:26 12.8
2017-Mar-27 00:16 090 0 gusting 2 12.8
2017-Mar-27 00:06 12.8
2017-Mar-26 23:56 12.8
2017-Mar-26 23:46 12.8
2017-Mar-26 23:36 225 12.8
2017-Mar-26 23:26 270 12.8
2017-Mar-26 23:16 315 12.8
2017-Mar-26 23:06 13.3
2017-Mar-26 22:56 13.3
2017-Mar-26 22:46 315 13.3
2017-Mar-26 22:36 13.3
2017-Mar-26 22:26 315 1 gusting 2 13.9
2017-Mar-26 22:16 315 2 gusting 4 13.9
2017-Mar-26 22:06 315 13.9
2017-Mar-26 21:56 337 2 gusting 4 13.9
2017-Mar-26 21:46 13.9
2017-Mar-26 21:36 315 0 gusting 1 13.9
2017-Mar-26 21:26 315 13.9
2017-Mar-26 21:16 090 14.4
2017-Mar-26 21:06 090 14.4
2017-Mar-26 20:56 14.4
2017-Mar-26 20:46 14.4
2017-Mar-26 20:36 14.4
2017-Mar-26 20:26 14.4
2017-Mar-26 20:16 14.4
2017-Mar-26 20:06 270 0 gusting 2 15.0
2017-Mar-26 19:56 045 15.0
2017-Mar-26 19:46 315 1 gusting 3 15.0
2017-Mar-26 19:36 337 1 gusting 2 15.0
2017-Mar-26 19:26 045 15.0
2017-Mar-26 19:16 090 15.0
2017-Mar-26 19:06 315 1 gusting 2 15.6
2017-Mar-26 18:56 15.6
2017-Mar-26 18:46 270 1 gusting 2 15.6
2017-Mar-26 18:37 16.1
2017-Mar-26 18:26 045 0 gusting 2 16.1
2017-Mar-26 18:16 315 0 gusting 2 16.1
2017-Mar-26 18:06 315 1 gusting 2 16.7
2017-Mar-26 17:56 090 1 gusting 4 17.2
2017-Mar-26 17:46 315 1 gusting 3 17.2
2017-Mar-26 17:36 17.8
2017-Mar-26 17:26 337 0 gusting 1 17.8
2017-Mar-26 17:16 18.3
2017-Mar-26 17:06 135 1 gusting 2 18.9
2017-Mar-26 16:56 180 19.4
2017-Mar-26 16:46 045 1 gusting 2 20.0
2017-Mar-26 16:36 270 0 gusting 2 20.0
2017-Mar-26 16:26 315 0 gusting 1 20.6
2017-Mar-26 16:16 135 0 gusting 2 20.6
2017-Mar-26 16:06 270 0 gusting 2 20.6
2017-Mar-26 15:56 20.6
2017-Mar-26 15:46 20.6
2017-Mar-26 15:36 135 2 gusting 5 20.6
2017-Mar-26 15:26 20.6
2017-Mar-26 15:16 135 1 gusting 2 20.6
2017-Mar-26 15:06 247 20.6
2017-Mar-26 14:56 180 21.1
2017-Mar-26 14:46 225 21.1
2017-Mar-26 14:36 270 0 gusting 2 21.1
2017-Mar-26 14:26 135 1 gusting 2 21.1
2017-Mar-26 14:16 225 1 gusting 2 21.1
2017-Mar-26 14:06 247 21.1
2017-Mar-26 13:56 225 0 gusting 2 21.1
2017-Mar-26 13:46 270 0 gusting 2 21.1
2017-Mar-26 13:36 225 0 gusting 1 20.6
2017-Mar-26 13:26 270 2 gusting 4 20.6
2017-Mar-26 13:16 045 20.6
2017-Mar-26 13:06 337 0 gusting 1 20.6
2017-Mar-26 12:56 045 1 gusting 2 20.6
2017-Mar-26 12:46 270 0 gusting 2 20.6
2017-Mar-26 12:36 225 20.6
2017-Mar-26 12:26 225 0 gusting 2 20.6
2017-Mar-26 12:16 090 0 gusting 2 20.6
2017-Mar-26 12:06 135 2 gusting 4 20.6
2017-Mar-26 11:56 315 0 gusting 2 20.6
2017-Mar-26 11:46 315 0 gusting 2 20.6
2017-Mar-26 11:36 090 1 gusting 3 20.6
2017-Mar-26 11:26 090 20.6
2017-Mar-26 11:16 270 0 gusting 2 20.6
2017-Mar-26 11:06 135 20.0
2017-Mar-26 10:56 315 20.0
2017-Mar-26 10:46 19.4
2017-Mar-26 10:36 045 0 gusting 2 19.4
2017-Mar-26 10:26 045 1 gusting 2 18.9
2017-Mar-26 10:16 315 1 gusting 3 18.9
2017-Mar-26 10:06 337 1 gusting 2 18.3
2017-Mar-26 09:56 135 18.3
2017-Mar-26 09:46 090 17.8
2017-Mar-26 09:36 090 0 gusting 2 17.2
2017-Mar-26 09:26 16.7
2017-Mar-26 09:11 270 16.1
2017-Mar-26 09:01 045 15.0
2017-Mar-26 08:51 270 14.4
2017-Mar-26 08:41 13.9
2017-Mar-26 08:31 12.8
2017-Mar-26 08:21 135 0 gusting 1 11.7
2017-Mar-26 08:11 135 10.6
2017-Mar-26 08:01 10.0
2017-Mar-26 07:51 8.9
2017-Mar-26 07:41 135 8.9
2017-Mar-26 07:31 8.3
2017-Mar-26 07:21 7.8
2017-Mar-26 07:11 7.2
2017-Mar-26 07:01 090 0 gusting 1 7.2
2017-Mar-26 06:51 6.7
2017-Mar-26 06:41 6.7
2017-Mar-26 06:31 6.7
2017-Mar-26 06:21 7.2
2017-Mar-26 06:11 7.2
2017-Mar-26 06:01 7.2
2017-Mar-26 05:51 7.2
2017-Mar-26 05:41 7.2
2017-Mar-26 05:31 7.8
2017-Mar-26 05:21 7.8
2017-Mar-26 05:11 8.3
2017-Mar-26 05:01 8.3
2017-Mar-26 04:51 8.9
2017-Mar-26 04:41 8.9
2017-Mar-26 04:31 8.9
2017-Mar-26 04:21 8.9
2017-Mar-26 04:11 045 8.9
2017-Mar-26 04:01 9.4